Contact Us:
Email: info@sawbill.com
Phone: (218)663-7150
Fax: (218)663-7980
Mail: 4620 Sawbill Trail
Box 2129
Tofte, MN 55615


Powered by
Movable Type 3.15
 
Sawbill Weather History Archives: January 2012
Current Sawbill Weather History | « December 2011 | February 2012 »


Date

High
Temperature

Low
Temperature

Barometric
Pressure

Relative
Humidity 7AM

9 AM
Temperature

Moisture

Snow

1/31/12 30 24 30.30 92% 25 0
1/30/12 26 14 29.68 98% 26 Trace Trace
1/29/12 14 -9 29.83 86% 14 .1" 1.5"
1/28/12 16 0 30.00 66% 0 .05" .5"
1/27/12 27 13 29.74 71% 14 .08" 1"
1/26/12 30 14 29.74 72% 15 0
1/25/12 27 11 29.68 97% 27 Trace Trace
1/24/12 22 10 30.15 72% 11 0
1/23/12 23 9 30.09 73% 11 .23" 2.5"
1/22/12 23 21 29.56 86% 22 .12" 1"
1/21/12 21 -19 29.74 87% 21 0
1/20/12 3 -19 30.09 61% -18 0
1/19/12 -4 -17 30.06 61% -9 0
1/18/12 10 -20 29.91 61% -19 .1" 1"
1/17/12 6 -9 29.97 61% -7 0
1/16/12 24 1 30.03 61% 1 0
1/15/12 25 17 29.77 79% 24 0
1/14/12 17 8 30.06 86% 17 0
1/13/12 8 -2 30.03 73% 8 Trace Trace
1/12/12 6 -2 29.94 73% 0 Trace Trace
1/11/12 34 3 29.80 73% 4 .18" 2"
1/10/12 39 30 29.71 86% 32 0
1/9/12 34 22 29.80 86% 30 0
1/8/12 32 20 29.92 63% 31 0
1/7/12 24 20 30.18 74% 22 .05" .5"
1/6/12 35 19 30.00 68% 20 .09" 1"
1/5/12 35 23 29.59 71% 35 0
1/4/12 26 15 29.77 94% 23 0
1/3/12 17 -1 30.03 83% 15 0
1/2/12 6 -9 30.12 74% -1 Trace Trace
1/1/12 23 4 30.24 74% 4 .09" 1"
 


Home I Trip Planning I Rentals and Outfitting I Reservations I Campgrounds I Sawbill Store I Sawbill News I Contact

© 1997 - 2017, Sawbill Canoe Outfitters, Inc. I Privacy Policy